createdAt,value
2023-09-04T00:02:09.801Z,2.22
2023-09-04T00:04:36.663Z,2.17
2023-09-04T00:07:04.187Z,2.30
2023-09-04T00:09:31.031Z,2.33
2023-09-04T00:11:57.879Z,2.13
2023-09-04T00:14:24.663Z,2.75
2023-09-04T00:16:51.426Z,2.10
2023-09-04T00:19:18.920Z,1.90
2023-09-04T00:21:45.847Z,2.17
2023-09-04T00:24:12.833Z,2.17
2023-09-04T00:26:39.698Z,1.90
2023-09-04T00:29:06.565Z,1.67
2023-09-04T00:31:33.500Z,1.80
2023-09-04T00:34:00.429Z,2.05
2023-09-04T00:36:27.576Z,2.20
2023-09-04T00:38:54.589Z,2.80
2023-09-04T00:41:21.479Z,1.95
2023-09-04T00:43:48.274Z,2.10
2023-09-04T00:46:16.513Z,1.80
2023-09-04T00:48:44.924Z,2.28
2023-09-04T00:51:11.980Z,2.45
2023-09-04T00:53:39.403Z,1.50
2023-09-04T00:56:08.486Z,2.25
2023-09-04T00:58:35.988Z,2.13
2023-09-04T01:01:03.783Z,2.28
2023-09-04T01:03:32.418Z,2.00
2023-09-04T01:06:00.908Z,2.10
2023-09-04T01:08:28.183Z,2.40
2023-09-04T01:11:17.820Z,2.00
2023-09-04T01:13:55.043Z,2.15
2023-09-04T01:16:23.349Z,2.13
2023-09-04T01:18:52.123Z,1.88
2023-09-04T01:21:19.047Z,2.30
2023-09-04T01:23:45.888Z,2.25
2023-09-04T01:26:42.712Z,2.33
2023-09-04T01:29:36.007Z,2.08
2023-09-04T01:32:37.509Z,2.33
2023-09-04T01:35:06.816Z,2.60
2023-09-04T01:37:35.028Z,2.75
2023-09-04T01:40:02.397Z,2.33
2023-09-04T01:42:29.309Z,2.13
2023-09-04T01:44:56.023Z,2.15
2023-09-04T01:47:22.851Z,2.35
2023-09-04T01:49:50.322Z,2.10
2023-09-04T01:52:17.951Z,2.00
2023-09-04T01:54:44.808Z,2.05
2023-09-04T01:57:11.573Z,1.98
2023-09-04T01:59:38.321Z,1.92
2023-09-04T02:02:05.265Z,2.13
2023-09-04T02:04:33.171Z,1.95
2023-09-04T02:07:00.018Z,1.75
2023-09-04T02:09:26.843Z,2.42
2023-09-04T02:11:54.086Z,1.80
2023-09-04T02:14:21.134Z,2.00
2023-09-04T02:16:47.898Z,2.00
2023-09-04T02:19:15.080Z,2.10
2023-09-04T02:21:42.724Z,2.00
2023-09-04T02:24:09.580Z,1.88
2023-09-04T02:26:36.470Z,2.10
2023-09-04T02:29:03.326Z,1.80
2023-09-04T02:31:30.211Z,1.90
2023-09-04T02:33:57.015Z,2.30
2023-09-04T02:36:24.878Z,2.67
2023-09-04T02:38:51.626Z,2.33
2023-09-04T02:41:18.372Z,2.40
2023-09-04T02:43:45.237Z,2.40
2023-09-04T02:46:12.308Z,2.45
2023-09-04T02:48:39.791Z,2.78
2023-09-04T02:51:06.660Z,2.30
2023-09-04T02:53:34.196Z,2.78
2023-09-04T02:56:02.100Z,2.90
2023-09-04T02:58:28.928Z,2.30
2023-09-04T03:00:55.832Z,2.42
2023-09-04T03:03:22.783Z,2.88
2023-09-04T03:05:49.662Z,2.67
2023-09-04T03:08:17.168Z,2.80
2023-09-04T03:10:44.276Z,2.70
2023-09-04T03:13:11.199Z,2.40
2023-09-04T03:15:38.305Z,2.45
2023-09-04T03:18:07.279Z,2.63
2023-09-04T03:20:35.189Z,2.80
2023-09-04T03:23:02.385Z,2.22
2023-09-04T03:25:29.390Z,2.35
2023-09-04T03:27:56.647Z,2.72
2023-09-04T03:30:24.207Z,2.13
2023-09-04T03:32:51.399Z,2.20
2023-09-04T03:35:19.065Z,2.47
2023-09-04T03:37:46.047Z,2.22
2023-09-04T03:40:21.923Z,2.40
2023-09-04T03:42:49.017Z,2.00
2023-09-04T03:45:16.044Z,2.55
2023-09-04T03:47:44.137Z,2.22
2023-09-04T03:50:14.917Z,2.42
2023-09-04T03:52:43.700Z,2.72
2023-09-04T03:55:12.528Z,2.20
2023-09-04T03:57:40.424Z,2.25
2023-09-04T04:00:18.325Z,2.27
2023-09-04T04:02:48.848Z,2.40
2023-09-04T04:05:17.015Z,2.40
2023-09-04T04:07:43.821Z,2.40
2023-09-04T04:10:11.180Z,3.00
2023-09-04T04:12:38.373Z,3.00
2023-09-04T04:15:08.312Z,2.77
2023-09-04T04:17:36.265Z,2.70
2023-09-04T04:20:13.823Z,2.35
2023-09-04T04:22:41.517Z,2.20
2023-09-04T04:25:09.017Z,2.25
2023-09-04T04:27:35.947Z,2.17
2023-09-04T04:30:03.761Z,2.05
2023-09-04T04:32:31.536Z,2.33
2023-09-04T04:34:58.474Z,2.13
2023-09-04T04:37:25.225Z,2.30
2023-09-04T04:39:53.718Z,2.30
2023-09-04T04:42:20.930Z,2.13
2023-09-04T04:44:48.285Z,2.25
2023-09-04T04:47:15.878Z,2.40
2023-09-04T04:49:44.796Z,2.70
2023-09-04T04:52:11.692Z,2.60
2023-09-04T04:54:38.956Z,2.40
2023-09-04T04:57:06.117Z,2.87
2023-09-04T04:59:32.954Z,3.10
2023-09-04T05:02:01.475Z,3.20
2023-09-04T05:04:29.498Z,3.40
2023-09-04T05:06:56.575Z,4.28
2023-09-04T05:09:23.603Z,3.67
2023-09-04T05:11:50.940Z,3.40
2023-09-04T05:14:17.895Z,3.07
2023-09-04T05:16:44.711Z,4.30
2023-09-04T05:19:11.564Z,4.30
2023-09-04T05:21:46.623Z,4.00
2023-09-04T05:24:22.727Z,3.80
2023-09-04T05:26:49.628Z,3.67
2023-09-04T05:29:16.317Z,3.45
2023-09-04T05:31:43.213Z,3.80
2023-09-04T05:34:10.005Z,3.90
2023-09-04T05:36:37.013Z,5.63
2023-09-04T05:39:04.147Z,5.50
2023-09-04T05:41:31.237Z,4.30
2023-09-04T05:43:58.113Z,4.40
2023-09-04T05:46:24.989Z,4.07
2023-09-04T05:48:51.838Z,3.97
2023-09-04T05:51:18.620Z,3.20
2023-09-04T05:53:45.406Z,4.00
2023-09-04T05:56:12.623Z,3.38
2023-09-04T05:58:47.402Z,3.28
2023-09-04T06:01:14.658Z,3.60
2023-09-04T06:03:42.048Z,5.25
2023-09-04T06:06:08.906Z,5.47
2023-09-04T06:08:35.783Z,7.85
2023-09-04T06:11:03.664Z,10.95
2023-09-04T06:13:31.324Z,10.70
2023-09-04T06:15:59.499Z,10.48
2023-09-04T06:18:28.432Z,10.60
2023-09-04T06:20:55.218Z,10.88
2023-09-04T06:23:21.967Z,14.40
2023-09-04T06:25:48.857Z,9.57
2023-09-04T06:28:15.700Z,9.10
2023-09-04T06:30:42.577Z,7.63
2023-09-04T06:33:09.395Z,7.20
2023-09-04T06:35:36.350Z,6.75
2023-09-04T06:38:03.691Z,7.20
2023-09-04T06:40:30.437Z,6.97
2023-09-04T06:42:57.243Z,6.57
2023-09-04T06:45:24.235Z,6.25
2023-09-04T06:47:54.398Z,6.32
2023-09-04T06:50:21.279Z,5.80
2023-09-04T06:52:48.114Z,5.88
2023-09-04T06:55:14.959Z,5.80
2023-09-04T06:57:41.755Z,6.07
2023-09-04T07:00:12.520Z,6.15
2023-09-04T07:02:39.737Z,6.82
2023-09-04T07:05:09.653Z,6.20
2023-09-04T07:07:38.676Z,5.97
2023-09-04T07:10:07.034Z,6.70
2023-09-04T07:12:37.180Z,6.22
2023-09-04T07:15:04.509Z,5.43
2023-09-04T07:17:31.542Z,5.75
2023-09-04T07:19:58.523Z,5.50
2023-09-04T07:22:25.856Z,5.78
2023-09-04T07:24:55.825Z,5.32
2023-09-04T07:27:22.718Z,5.15
2023-09-04T07:29:49.602Z,5.70
2023-09-04T07:32:16.487Z,6.00
2023-09-04T07:34:43.268Z,5.28
2023-09-04T07:37:10.173Z,5.85
2023-09-04T07:39:36.928Z,5.80
2023-09-04T07:42:03.968Z,5.63
2023-09-04T07:44:32.892Z,5.93
2023-09-04T07:46:59.796Z,5.95
2023-09-04T07:49:26.545Z,5.03
2023-09-04T07:51:54.489Z,5.20
2023-09-04T07:54:22.665Z,5.32
2023-09-04T07:56:49.581Z,5.55
2023-09-04T07:59:16.325Z,5.30
2023-09-04T08:01:43.605Z,4.70
2023-09-04T08:04:11.042Z,4.53
2023-09-04T08:06:37.859Z,4.10
2023-09-04T08:09:04.640Z,4.10
2023-09-04T08:11:31.648Z,4.10
2023-09-04T08:13:58.630Z,3.72
2023-09-04T08:16:25.892Z,3.67
2023-09-04T08:18:52.777Z,3.47
2023-09-04T08:21:19.874Z,2.90
2023-09-04T08:23:46.930Z,2.80
2023-09-04T08:26:16.058Z,3.00
2023-09-04T08:28:43.997Z,2.88
2023-09-04T08:31:12.096Z,2.80
2023-09-04T08:33:39.308Z,2.75
2023-09-04T08:36:06.168Z,3.00
2023-09-04T08:38:33.071Z,2.70
2023-09-04T08:41:08.662Z,3.13
2023-09-04T08:43:38.419Z,2.50
2023-09-04T08:46:08.640Z,2.85
2023-09-04T08:48:40.409Z,2.70
2023-09-04T08:51:08.102Z,2.60
2023-09-04T08:53:37.067Z,2.72
2023-09-04T08:56:07.561Z,2.90
2023-09-04T08:58:34.353Z,2.47
2023-09-04T09:01:02.160Z,2.83
2023-09-04T09:03:29.554Z,2.88
2023-09-04T09:05:58.316Z,2.65
2023-09-04T09:08:26.006Z,2.17
2023-09-04T09:10:54.310Z,2.53
2023-09-04T09:13:22.028Z,2.70
2023-09-04T09:15:49.079Z,2.42
2023-09-04T09:18:36.258Z,2.85
2023-09-04T09:21:03.129Z,2.50
2023-09-04T09:23:30.628Z,2.35
2023-09-04T09:25:57.636Z,2.45
2023-09-04T09:28:24.958Z,2.30
2023-09-04T09:30:52.171Z,2.70
2023-09-04T09:33:22.300Z,2.42
2023-09-04T09:35:49.206Z,2.22
2023-09-04T09:38:16.076Z,2.00
2023-09-04T09:40:45.773Z,2.08
2023-09-04T09:43:12.672Z,2.08
2023-09-04T09:45:39.551Z,2.25
2023-09-04T09:48:08.082Z,3.25
2023-09-04T09:50:40.680Z,2.08
2023-09-04T09:53:07.590Z,2.33
2023-09-04T09:55:36.043Z,2.63
2023-09-04T09:58:03.261Z,2.40
2023-09-04T10:00:30.507Z,1.98
2023-09-04T10:02:58.825Z,1.90
2023-09-04T10:05:27.186Z,2.50
2023-09-04T10:08:01.637Z,2.20
2023-09-04T10:10:31.767Z,2.00
2023-09-04T10:13:09.557Z,1.83
2023-09-04T10:15:38.088Z,1.90
2023-09-04T10:18:20.440Z,1.70
2023-09-04T10:20:48.270Z,1.80
2023-09-04T10:23:20.571Z,1.65
2023-09-04T10:25:56.508Z,1.98
2023-09-04T10:28:43.306Z,1.88
2023-09-04T10:31:12.022Z,1.90
2023-09-04T10:33:39.484Z,1.50
2023-09-04T10:36:07.006Z,2.00
2023-09-04T10:38:35.149Z,1.88
2023-09-04T10:41:02.607Z,2.40
2023-09-04T10:43:45.443Z,1.67
2023-09-04T10:46:14.417Z,1.92
2023-09-04T10:48:45.093Z,2.17
2023-09-04T10:51:38.131Z,2.13
2023-09-04T10:54:25.826Z,2.30
2023-09-04T10:56:56.906Z,1.80
2023-09-04T10:59:24.045Z,1.92
2023-09-04T11:01:51.258Z,2.00
2023-09-04T11:04:36.669Z,1.98
2023-09-04T11:07:21.881Z,1.67
2023-09-04T11:09:49.678Z,1.60
2023-09-04T11:12:26.070Z,1.73
2023-09-04T11:14:54.540Z,1.45
2023-09-04T11:17:29.500Z,1.70
2023-09-04T11:19:56.730Z,2.00
2023-09-04T11:22:27.710Z,1.60
2023-09-04T11:24:55.910Z,1.88
2023-09-04T11:27:24.322Z,1.55
2023-09-04T11:29:52.191Z,1.70
2023-09-04T11:32:20.474Z,1.80
2023-09-04T11:34:48.667Z,1.33
2023-09-04T11:37:15.770Z,1.60
2023-09-04T11:40:03.356Z,1.60
2023-09-04T11:42:33.635Z,1.90
2023-09-04T11:45:00.572Z,1.80
2023-09-04T11:47:28.181Z,1.55
2023-09-04T11:49:55.179Z,1.80
2023-09-04T11:52:29.749Z,1.90
2023-09-04T11:54:58.056Z,1.60
2023-09-04T11:57:25.360Z,1.60
2023-09-04T11:59:52.374Z,1.70
2023-09-04T12:02:19.431Z,1.75
2023-09-04T12:04:47.598Z,1.70
2023-09-04T12:07:17.588Z,1.67
2023-09-04T12:09:44.714Z,1.80
2023-09-04T12:12:11.830Z,1.70
2023-09-04T12:14:46.133Z,1.60
2023-09-04T12:17:13.368Z,1.45
2023-09-04T12:19:43.537Z,1.67
2023-09-04T12:22:14.792Z,1.60
2023-09-04T12:25:01.301Z,1.58
2023-09-04T12:27:29.658Z,1.85
2023-09-04T12:29:56.725Z,1.60
2023-09-04T12:32:24.793Z,1.77
2023-09-04T12:34:51.943Z,1.60
2023-09-04T12:37:19.424Z,1.80
2023-09-04T12:39:46.322Z,1.65
2023-09-04T12:42:13.102Z,1.63
2023-09-04T12:44:39.939Z,1.50
2023-09-04T12:47:06.928Z,1.60
2023-09-04T12:49:34.750Z,1.73
2023-09-04T12:52:01.671Z,1.55
2023-09-04T12:54:28.484Z,1.60
2023-09-04T12:56:55.656Z,1.80
2023-09-04T12:59:22.586Z,1.60
2023-09-04T13:01:49.435Z,1.50
2023-09-04T13:04:16.216Z,1.55
2023-09-04T13:06:43.010Z,1.70
2023-09-04T13:09:09.875Z,1.75
2023-09-04T13:11:36.776Z,2.20
2023-09-04T13:14:04.189Z,2.03
2023-09-04T13:16:31.099Z,2.67
2023-09-04T13:18:58.225Z,2.15
2023-09-04T13:21:26.564Z,1.70
2023-09-04T13:23:54.573Z,2.25
2023-09-04T13:26:21.377Z,1.92
2023-09-04T13:28:48.140Z,2.00
2023-09-04T13:31:17.342Z,2.17
2023-09-04T13:33:44.457Z,1.85
2023-09-04T13:36:11.246Z,2.25
2023-09-04T13:38:38.081Z,2.10
2023-09-04T13:41:06.624Z,1.85
2023-09-04T13:43:33.540Z,1.80
2023-09-04T13:46:00.344Z,2.03
2023-09-04T13:48:29.122Z,1.92
2023-09-04T13:50:55.943Z,1.95
2023-09-04T13:53:23.180Z,1.88
2023-09-04T13:55:50.234Z,1.92
2023-09-04T13:58:17.065Z,2.10
2023-09-04T14:00:43.966Z,1.75
2023-09-04T14:03:12.469Z,2.00
2023-09-04T14:05:39.486Z,2.10
2023-09-04T14:08:07.427Z,2.50
2023-09-04T14:10:40.121Z,2.30
2023-09-04T14:13:07.781Z,2.22
2023-09-04T14:15:34.709Z,2.53
2023-09-04T14:18:01.556Z,2.30
2023-09-04T14:20:28.404Z,2.50
2023-09-04T14:22:55.304Z,2.28
2023-09-04T14:25:22.134Z,2.10
2023-09-04T14:27:48.890Z,2.38
2023-09-04T14:30:15.749Z,2.38
2023-09-04T14:32:42.598Z,2.40
2023-09-04T14:35:09.594Z,2.35
2023-09-04T14:37:36.408Z,2.42
2023-09-04T14:40:04.522Z,2.22
2023-09-04T14:42:31.530Z,2.95
2023-09-04T14:44:59.085Z,2.38
2023-09-04T14:47:26.090Z,2.85
2023-09-04T14:49:53.092Z,2.70
2023-09-04T14:52:19.976Z,2.47
2023-09-04T14:54:47.106Z,2.50
2023-09-04T14:57:14.082Z,2.58
2023-09-04T14:59:41.073Z,2.75
2023-09-04T15:02:08.267Z,3.05
2023-09-04T15:04:35.094Z,2.83
2023-09-04T15:07:02.128Z,2.85
2023-09-04T15:09:29.334Z,2.83
2023-09-04T15:11:56.169Z,2.60
2023-09-04T15:14:23.294Z,2.70
2023-09-04T15:16:50.087Z,2.70
2023-09-04T15:19:16.828Z,2.63
2023-09-04T15:21:44.575Z,2.60
2023-09-04T15:24:11.505Z,2.15
2023-09-04T15:26:38.304Z,2.53
2023-09-04T15:29:05.798Z,3.30
2023-09-04T15:31:35.453Z,2.53
2023-09-04T15:34:03.216Z,2.63
2023-09-04T15:36:30.249Z,2.50
2023-09-04T15:38:57.808Z,2.42
2023-09-04T15:41:25.482Z,2.55
2023-09-04T15:43:52.579Z,2.53
2023-09-04T15:46:19.504Z,3.30
2023-09-04T15:48:46.843Z,3.03
2023-09-04T15:51:13.741Z,2.70
2023-09-04T15:53:40.972Z,3.08
2023-09-04T15:56:07.773Z,2.92
2023-09-04T15:58:35.034Z,3.00
2023-09-04T16:01:04.471Z,2.63
2023-09-04T16:03:31.576Z,2.95
2023-09-04T16:05:58.480Z,2.53
2023-09-04T16:08:25.472Z,3.13
2023-09-04T16:10:52.441Z,2.55
2023-09-04T16:13:24.845Z,3.17
2023-09-04T16:15:55.659Z,3.30
2023-09-04T16:18:22.896Z,2.85
2023-09-04T16:20:49.878Z,3.15
2023-09-04T16:23:21.473Z,2.85
2023-09-04T16:25:56.399Z,3.03
2023-09-04T16:28:25.559Z,3.28
2023-09-04T16:30:54.131Z,3.38
2023-09-04T16:33:21.917Z,2.95
2023-09-04T16:35:49.728Z,3.20
2023-09-04T16:38:16.613Z,3.10
2023-09-04T16:40:44.061Z,3.15
2023-09-04T16:43:10.924Z,3.20
2023-09-04T16:45:38.288Z,3.40
2023-09-04T16:48:06.404Z,2.80
2023-09-04T16:50:33.728Z,3.70
2023-09-04T16:53:00.870Z,3.42
2023-09-04T16:55:27.765Z,2.72
2023-09-04T16:57:54.812Z,3.15
2023-09-04T17:00:21.746Z,3.63
2023-09-04T17:02:50.449Z,3.22
2023-09-04T17:05:18.963Z,3.55
2023-09-04T17:07:46.406Z,3.50
2023-09-04T17:10:13.639Z,3.53
2023-09-04T17:12:40.443Z,3.53
2023-09-04T17:15:08.039Z,3.08
2023-09-04T17:17:35.103Z,4.00
2023-09-04T17:20:01.969Z,3.38
2023-09-04T17:22:28.782Z,3.60
2023-09-04T17:24:55.584Z,4.28
2023-09-04T17:27:22.659Z,4.82
2023-09-04T17:29:51.559Z,5.30
2023-09-04T17:32:18.373Z,4.32
2023-09-04T17:34:45.152Z,4.22
2023-09-04T17:37:11.967Z,4.50
2023-09-04T17:39:38.704Z,4.85
2023-09-04T17:42:05.700Z,4.60
2023-09-04T17:44:35.842Z,4.85
2023-09-04T17:47:02.669Z,5.50
2023-09-04T17:49:29.783Z,4.97
2023-09-04T17:51:56.599Z,4.28
2023-09-04T17:54:23.369Z,4.15
2023-09-04T17:56:50.093Z,3.92
2023-09-04T17:59:16.921Z,4.18
2023-09-04T18:01:43.680Z,3.80
2023-09-04T18:04:12.139Z,3.80
2023-09-04T18:06:38.998Z,3.42
2023-09-04T18:09:06.097Z,3.80
2023-09-04T18:11:32.923Z,3.33
2023-09-04T18:14:00.285Z,3.42
2023-09-04T18:16:27.171Z,3.20
2023-09-04T18:18:54.079Z,3.28
2023-09-04T18:21:20.934Z,3.38
2023-09-04T18:23:49.714Z,3.55
2023-09-04T18:26:16.907Z,3.42
2023-09-04T18:28:43.852Z,3.58
2023-09-04T18:31:24.144Z,3.15
2023-09-04T18:33:52.619Z,3.47
2023-09-04T18:36:19.736Z,3.53
2023-09-04T18:38:47.275Z,3.45
2023-09-04T18:41:16.632Z,3.17
2023-09-04T18:43:47.189Z,3.55
2023-09-04T18:46:14.098Z,3.88
2023-09-04T18:48:40.993Z,3.65
2023-09-04T18:51:07.793Z,2.97
2023-09-04T18:53:35.920Z,2.75
2023-09-04T18:56:03.028Z,2.90
2023-09-04T18:58:30.002Z,3.00
2023-09-04T19:01:04.216Z,2.72
2023-09-04T19:03:31.273Z,2.90
2023-09-04T19:05:58.372Z,3.35
2023-09-04T19:08:25.588Z,3.03
2023-09-04T19:10:54.145Z,2.95
2023-09-04T19:13:22.107Z,3.15
2023-09-04T19:15:49.044Z,3.13
2023-09-04T19:18:16.015Z,3.25
2023-09-04T19:20:42.892Z,2.83
2023-09-04T19:23:09.758Z,3.00
2023-09-04T19:25:36.947Z,3.10
2023-09-04T19:28:04.137Z,3.13
2023-09-04T19:30:31.846Z,2.67
2023-09-04T19:32:58.917Z,2.60
2023-09-04T19:35:26.022Z,3.03
2023-09-04T19:37:52.835Z,2.75
2023-09-04T19:40:19.762Z,2.65
2023-09-04T19:42:46.704Z,2.53
2023-09-04T19:45:14.426Z,2.55
2023-09-04T19:47:41.407Z,2.58
2023-09-04T19:50:10.067Z,2.88
2023-09-04T19:52:37.315Z,2.58
2023-09-04T19:55:04.903Z,2.83
2023-09-04T19:57:32.282Z,2.45
2023-09-04T20:00:00.802Z,2.53
2023-09-04T20:02:27.837Z,2.20
2023-09-04T20:04:54.902Z,2.00
2023-09-04T20:07:21.784Z,2.42
2023-09-04T20:09:49.657Z,2.03
2023-09-04T20:12:17.507Z,2.45
2023-09-04T20:14:44.357Z,2.20
2023-09-04T20:17:11.162Z,2.28
2023-09-04T20:19:38.025Z,2.00
2023-09-04T20:22:05.093Z,2.30
2023-09-04T20:24:31.894Z,2.38
2023-09-04T20:26:58.858Z,2.38
2023-09-04T20:29:25.668Z,2.40
2023-09-04T20:31:52.632Z,2.33
2023-09-04T20:34:19.553Z,2.50
2023-09-04T20:36:47.973Z,2.17
2023-09-04T20:39:14.846Z,2.20
2023-09-04T20:41:41.606Z,2.20
2023-09-04T20:44:08.370Z,1.88
2023-09-04T20:46:37.172Z,2.38
2023-09-04T20:49:04.298Z,2.10
2023-09-04T20:51:31.408Z,2.28
2023-09-04T20:53:58.232Z,2.47
2023-09-04T20:56:25.023Z,2.17
2023-09-04T20:58:51.778Z,2.40
2023-09-04T21:01:18.606Z,2.35
2023-09-04T21:03:45.514Z,2.05
2023-09-04T21:06:13.579Z,2.55
2023-09-04T21:08:40.533Z,2.13
2023-09-04T21:11:08.447Z,2.30
2023-09-04T21:13:53.874Z,2.60
2023-09-04T21:16:39.303Z,2.40
2023-09-04T21:19:24.773Z,1.80
2023-09-04T21:22:10.333Z,2.60
2023-09-04T21:24:55.575Z,2.33
2023-09-04T21:27:40.925Z,2.75
2023-09-04T21:30:26.862Z,2.28
2023-09-04T21:33:12.561Z,2.25
2023-09-04T21:35:58.037Z,2.45
2023-09-04T21:38:43.366Z,2.15
2023-09-04T21:41:28.699Z,2.50
2023-09-04T21:44:14.014Z,2.30
2023-09-04T21:46:59.072Z,2.17
2023-09-04T21:49:44.635Z,2.58
2023-09-04T21:52:29.936Z,2.45
2023-09-04T21:55:15.368Z,2.30
2023-09-04T21:58:00.700Z,2.40
2023-09-04T22:00:46.189Z,2.50
2023-09-04T22:03:31.650Z,2.20
2023-09-04T22:06:21.367Z,2.28
2023-09-04T22:09:06.964Z,2.50
2023-09-04T22:11:52.734Z,2.50
2023-09-04T22:14:38.008Z,2.40
2023-09-04T22:17:23.392Z,2.30
2023-09-04T22:20:08.701Z,2.35
2023-09-04T22:22:54.042Z,2.55
2023-09-04T22:25:39.441Z,2.45
2023-09-04T22:28:24.447Z,2.28
2023-09-04T22:31:09.899Z,2.60
2023-09-04T22:33:55.268Z,2.47
2023-09-04T22:36:40.693Z,2.63
2023-09-04T22:39:25.972Z,1.98
2023-09-04T22:42:11.653Z,2.17
2023-09-04T22:44:56.926Z,2.40
2023-09-04T22:47:42.277Z,2.45
2023-09-04T22:50:27.688Z,2.70
2023-09-04T22:53:12.981Z,2.20
2023-09-04T22:55:58.511Z,2.47
2023-09-04T22:58:43.797Z,2.38
2023-09-04T23:01:29.426Z,2.50
2023-09-04T23:04:15.222Z,2.58
2023-09-04T23:07:00.495Z,2.63
2023-09-04T23:09:45.995Z,2.33
2023-09-04T23:12:31.337Z,2.47
2023-09-04T23:15:16.748Z,2.10
2023-09-04T23:18:02.285Z,2.50
2023-09-04T23:20:47.391Z,2.70
2023-09-04T23:23:15.116Z,2.50
2023-09-04T23:25:46.336Z,2.30
2023-09-04T23:28:13.952Z,2.42
2023-09-04T23:30:40.804Z,2.50
2023-09-04T23:33:12.316Z,2.60
2023-09-04T23:36:06.210Z,2.78
2023-09-04T23:38:51.888Z,2.42
2023-09-04T23:41:55.093Z,2.60
2023-09-04T23:44:40.639Z,2.75
2023-09-04T23:47:07.500Z,2.58
2023-09-04T23:49:35.127Z,2.97
2023-09-04T23:52:02.791Z,2.72
2023-09-04T23:54:30.245Z,2.75
2023-09-04T23:56:57.680Z,2.65
2023-09-04T23:59:29.565Z,2.67
